Time;durP1;ratioP1;P1;durP2;ratioP2;P2;SDS_P1;SDS_P2;PMS_P1;PMS_P2;Temp;Humidity;BMP_temperature;BMP_pressure;BME280_temperature;BME280_humidity;BME280_pressure;Samples;Min_cycle;Max_cycle;Signal;HPM_P1;HPM_P2
2022/06/25 00:00:27;;;;;;;1.90;0.90;;;14.70;99.90;;;;;;5037567;28;20033;-75
2022/06/25 00:02:52;;;;;;;1.15;0.80;;;14.70;99.90;;;;;;5055606;28;20025;-74
2022/06/25 00:05:32;;;;;;;1.35;1.02;;;14.70;99.90;;;;;;5060576;28;20484;-75
2022/06/25 00:07:58;;;;;;;2.60;1.15;;;14.70;99.90;;;;;;5062482;28;20393;-74
2022/06/25 00:10:25;;;;;;;5.22;1.70;;;14.70;99.90;;;;;;5055685;28;20041;-74
2022/06/25 00:12:51;;;;;;;11.82;1.23;;;14.70;99.90;;;;;;5066690;28;20032;-75
2022/06/25 00:15:17;;;;;;;2.25;1.00;;;14.70;99.90;;;;;;5061190;28;20033;-75
2022/06/25 00:17:43;;;;;;;2.08;0.90;;;14.70;99.90;;;;;;5060358;28;20024;-75
2022/06/25 00:20:09;;;;;;;4.65;1.23;;;14.70;99.90;;;;;;5055108;28;20070;-74
2022/06/25 00:22:36;;;;;;;4.05;1.17;;;14.70;99.90;;;;;;5062602;28;20036;-75
2022/06/25 00:25:02;;;;;;;3.88;1.10;;;14.70;99.90;;;;;;5061803;28;20037;-75
2022/06/25 00:27:28;;;;;;;1.83;0.95;;;14.70;99.90;;;;;;5055246;28;20039;-74
2022/06/25 00:29:54;;;;;;;1.48;0.88;;;14.70;99.90;;;;;;5055380;28;20513;-74
2022/06/25 00:32:19;;;;;;;1.70;1.00;;;14.70;99.90;;;;;;5051429;28;20113;-75
2022/06/25 00:34:48;;;;;;;3.53;0.90;;;14.70;99.90;;;;;;5054307;28;20036;-75
2022/06/25 00:37:15;;;;;;;1.17;0.82;;;14.70;99.90;;;;;;5058911;28;20486;-75
2022/06/25 00:39:43;;;;;;;1.45;0.90;;;14.70;99.90;;;;;;5055074;28;20457;-75
2022/06/25 00:42:11;;;;;;;2.97;0.93;;;14.70;99.90;;;;;;5055107;28;20517;-74
2022/06/25 00:44:37;;;;;;;1.70;1.00;;;14.70;99.90;;;;;;5054726;28;20078;-75
2022/06/25 00:47:04;;;;;;;4.47;1.00;;;14.70;99.90;;;;;;5059577;28;20462;-75
2022/06/25 00:49:30;;;;;;;3.33;0.90;;;14.70;99.90;;;;;;5056631;28;20028;-75
2022/06/25 00:51:59;;;;;;;1.98;1.00;;;14.70;99.90;;;;;;5072282;28;20036;-75
2022/06/25 00:54:33;;;;;;;4.43;1.00;;;14.70;99.90;;;;;;5075361;28;20185;-75
2022/06/25 00:57:00;;;;;;;4.90;0.93;;;14.70;99.90;;;;;;5057847;28;20103;-75
2022/06/25 00:59:27;;;;;;;2.08;1.08;;;14.70;99.90;;;;;;5075610;28;20103;-75
2022/06/25 01:01:53;;;;;;;1.95;1.10;;;14.70;99.90;;;;;;5039186;28;20530;-75
2022/06/25 01:04:19;;;;;;;3.95;1.00;;;14.70;99.90;;;;;;5066107;28;20021;-75
2022/06/25 01:06:45;;;;;;;2.15;1.00;;;14.70;99.90;;;;;;5060248;28;20033;-75
2022/06/25 01:09:11;;;;;;;1.58;1.08;;;14.70;99.90;;;;;;5063689;28;20024;-75
2022/06/25 01:11:37;;;;;;;3.00;0.90;;;14.70;99.90;;;;;;5056769;28;20045;-75
2022/06/25 01:14:10;;;;;;;3.95;1.08;;;14.70;99.90;;;;;;5068350;28;20025;-75
2022/06/25 01:16:36;;;;;;;1.90;0.88;;;14.70;99.90;;;;;;5068273;28;20021;-75
2022/06/25 01:19:09;;;;;;;2.83;0.90;;;14.70;99.90;;;;;;5055163;28;20112;-75
2022/06/25 01:21:36;;;;;;;1.35;1.10;;;14.70;99.90;;;;;;5066946;28;20107;-75
2022/06/25 01:24:03;;;;;;;1.42;1.00;;;14.70;99.90;;;;;;5073823;28;20051;-74
2022/06/25 01:26:28;;;;;;;3.78;0.90;;;14.70;99.90;;;;;;5074621;28;20077;-75
2022/06/25 01:28:54;;;;;;;1.30;0.90;;;14.70;99.90;;;;;;5071754;28;20415;-75
2022/06/25 01:31:22;;;;;;;2.92;1.00;;;14.70;99.90;;;;;;5062266;28;20029;-75
2022/06/25 01:33:47;;;;;;;2.42;1.00;;;14.70;99.90;;;;;;5059465;28;20691;-75
2022/06/25 01:36:13;;;;;;;3.08;1.00;;;14.70;99.90;;;;;;5060227;28;20147;-75
2022/06/25 01:38:38;;;;;;;3.20;1.15;;;14.70;99.90;;;;;;5073830;28;20053;-75
2022/06/25 01:41:04;;;;;;;2.42;0.90;;;14.70;99.90;;;;;;5069454;28;20021;-75
2022/06/25 01:43:29;;;;;;;1.60;0.95;;;14.70;99.90;;;;;;5063998;28;20107;-75
2022/06/25 01:45:55;;;;;;;4.70;1.55;;;14.70;99.90;;;;;;5059231;28;20080;-75
2022/06/25 01:48:20;;;;;;;2.50;1.13;;;14.70;99.90;;;;;;5073565;28;20035;-75
2022/06/25 01:50:46;;;;;;;3.45;0.90;;;14.70;99.90;;;;;;5073470;28;20507;-75
2022/06/25 01:53:11;;;;;;;1.88;1.10;;;14.70;99.90;;;;;;5067518;28;20029;-75
2022/06/25 01:55:37;;;;;;;0.80;0.80;;;14.70;99.90;;;;;;5054397;28;20053;-74
2022/06/25 01:58:03;;;;;;;7.13;1.52;;;14.70;99.90;;;;;;5070259;28;20050;-75
2022/06/25 02:00:30;;;;;;;3.83;1.00;;;14.70;99.90;;;;;;5064178;28;20104;-75
2022/06/25 02:02:56;;;;;;;3.08;1.33;;;14.70;99.90;;;;;;5054641;28;20111;-75
2022/06/25 02:08:10;;;;;;;3.28;1.00;;;14.70;99.90;;;;;;5060161;28;20535;-75
2022/06/25 02:10:36;;;;;;;3.03;1.00;;;14.70;99.90;;;;;;5073394;28;20048;-75
2022/06/25 02:13:03;;;;;;;3.90;1.00;;;14.70;99.90;;;;;;5064794;28;20043;-75
2022/06/25 02:15:28;;;;;;;1.23;0.98;;;14.70;99.90;;;;;;5073458;28;20084;-75
2022/06/25 02:17:54;;;;;;;3.95;1.25;;;14.70;99.90;;;;;;5073448;28;20107;-74
2022/06/25 02:20:21;;;;;;;2.63;1.00;;;14.70;99.90;;;;;;5073150;28;20519;-75
2022/06/25 02:22:47;;;;;;;4.55;1.73;;;14.70;99.90;;;;;;5073215;28;20060;-74
2022/06/25 02:25:13;;;;;;;2.53;0.90;;;14.70;99.90;;;;;;5055675;28;20477;-75
2022/06/25 02:27:38;;;;;;;2.58;1.00;;;14.70;99.90;;;;;;5053116;28;20104;-75
2022/06/25 02:30:04;;;;;;;2.08;0.93;;;14.70;99.90;;;;;;5053490;28;20025;-74
2022/06/25 02:32:31;;;;;;;2.80;1.02;;;14.70;99.90;;;;;;5072990;28;20032;-75
2022/06/25 02:34:56;;;;;;;4.05;0.98;;;14.70;99.90;;;;;;5055110;28;20028;-75
2022/06/25 02:37:22;;;;;;;3.00;0.90;;;14.70;99.90;;;;;;5058897;28;20089;-75
2022/06/25 02:39:47;;;;;;;7.53;1.10;;;14.70;99.90;;;;;;5072854;28;20063;-75
2022/06/25 02:42:13;;;;;;;6.90;1.27;;;14.70;99.90;;;;;;5072817;28;20024;-75
2022/06/25 02:44:38;;;;;;;5.47;1.10;;;14.70;99.90;;;;;;5072912;28;20032;-75
2022/06/25 02:47:04;;;;;;;2.35;1.10;;;14.70;99.90;;;;;;5072893;28;20025;-75
2022/06/25 02:49:30;;;;;;;3.60;1.10;;;14.70;99.90;;;;;;5072940;28;20025;-75
2022/06/25 02:51:55;;;;;;;5.25;1.05;;;14.70;99.90;;;;;;5072566;28;20037;-75
2022/06/25 02:54:21;;;;;;;3.10;0.93;;;14.70;99.90;;;;;;5071275;28;20466;-75
2022/06/25 02:59:31;;;;;;;4.60;1.30;;;14.70;99.90;;;;;;5053708;28;20477;-75
2022/06/25 03:01:56;;;;;;;4.10;1.10;;;14.70;99.90;;;;;;5064231;28;20021;-75
2022/06/25 03:04:24;;;;;;;3.40;1.90;;;14.70;99.90;;;;;;5052707;28;20458;-75
2022/06/25 03:06:50;;;;;;;4.80;1.13;;;14.70;99.90;;;;;;5058148;28;20017;-75
2022/06/25 03:09:16;;;;;;;2.20;0.98;;;14.70;99.90;;;;;;5061224;28;20088;-75
2022/06/25 03:11:42;;;;;;;3.63;1.38;;;14.70;99.90;;;;;;5069999;28;20036;-75
2022/06/25 03:14:07;;;;;;;3.60;1.42;;;14.70;99.90;;;;;;5063333;28;20029;-75
2022/06/25 03:16:33;;;;;;;2.20;1.00;;;14.70;99.90;;;;;;5064043;28;20025;-75
2022/06/25 03:18:59;;;;;;;1.15;1.00;;;14.70;99.90;;;;;;5072640;28;20025;-75
2022/06/25 03:21:25;;;;;;;5.47;1.17;;;14.70;99.90;;;;;;5072571;28;20454;-75
2022/06/25 03:23:50;;;;;;;4.85;1.30;;;14.70;99.90;;;;;;5072486;28;20450;-75
2022/06/25 03:26:16;;;;;;;2.58;1.10;;;14.70;99.90;;;;;;5072582;28;20033;-75
2022/06/25 03:28:41;;;;;;;4.25;1.20;;;14.70;99.90;;;;;;5037129;28;20036;-75
2022/06/25 03:31:07;;;;;;;4.70;1.05;;;14.60;99.90;;;;;;5061664;28;20038;-74
2022/06/25 03:33:32;;;;;;;1.45;0.93;;;14.60;99.90;;;;;;5072573;28;20466;-75
2022/06/25 03:35:58;;;;;;;5.93;1.10;;;14.70;99.90;;;;;;5072220;28;20367;-75
2022/06/25 03:38:23;;;;;;;3.53;1.30;;;14.60;99.90;;;;;;5062935;28;20141;-74
2022/06/25 03:40:49;;;;;;;1.88;0.95;;;14.60;99.90;;;;;;5075212;28;20031;-75
2022/06/25 03:43:14;;;;;;;2.53;1.20;;;14.60;99.90;;;;;;5065037;28;20055;-75
2022/06/25 03:45:40;;;;;;;5.20;1.10;;;14.60;99.90;;;;;;5073261;28;20111;-75
2022/06/25 03:48:06;;;;;;;3.22;1.02;;;14.60;99.90;;;;;;5066663;28;20032;-74
2022/06/25 03:50:33;;;;;;;2.38;0.90;;;14.60;99.90;;;;;;5070387;28;20466;-75
2022/06/25 03:52:59;;;;;;;4.28;1.13;;;14.60;99.90;;;;;;5072475;28;20024;-74
2022/06/25 03:55:24;;;;;;;4.70;1.25;;;14.60;99.90;;;;;;5058800;28;20028;-75
2022/06/25 03:57:50;;;;;;;2.70;1.00;;;14.60;99.90;;;;;;5056056;28;20444;-75
2022/06/25 04:00:16;;;;;;;3.30;0.90;;;14.60;99.90;;;;;;5068365;28;20095;-75
2022/06/25 04:02:41;;;;;;;4.43;1.00;;;14.60;99.90;;;;;;5068298;28;20029;-74
2022/06/25 04:05:07;;;;;;;4.13;1.23;;;14.60;99.90;;;;;;5069718;28;20465;-75
2022/06/25 04:07:33;;;;;;;5.40;1.20;;;14.50;99.90;;;;;;5066124;28;20028;-75
2022/06/25 04:09:58;;;;;;;3.00;1.10;;;14.60;99.90;;;;;;5072152;28;20043;-75
2022/06/25 04:12:25;;;;;;;3.95;1.00;;;14.60;99.90;;;;;;5055265;28;20025;-75
2022/06/25 04:14:50;;;;;;;2.20;0.90;;;14.60;99.90;;;;;;5063641;28;20029;-75
2022/06/25 04:17:16;;;;;;;5.47;1.10;;;14.60;99.90;;;;;;5064161;28;20036;-75
2022/06/25 04:19:41;;;;;;;6.65;1.35;;;14.60;99.90;;;;;;5068614;28;20489;-75
2022/06/25 04:22:08;;;;;;;6.75;1.08;;;14.70;99.90;;;;;;5075138;28;20020;-74
2022/06/25 04:24:35;;;;;;;4.90;0.98;;;14.70;99.90;;;;;;5070267;28;20029;-75
2022/06/25 04:27:01;;;;;;;4.53;1.30;;;14.70;99.90;;;;;;5055157;28;20465;-75
2022/06/25 04:29:27;;;;;;;1.83;1.10;;;14.70;99.90;;;;;;5065022;28;20016;-79
2022/06/25 04:31:53;;;;;;;3.53;1.13;;;14.80;99.90;;;;;;5056624;28;20805;-75
2022/06/25 04:34:18;;;;;;;4.90;1.15;;;14.80;99.90;;;;;;5055124;28;20139;-75
2022/06/25 04:36:44;;;;;;;2.45;1.00;;;14.80;99.90;;;;;;5055660;28;20074;-78
2022/06/25 04:39:10;;;;;;;4.28;1.05;;;14.90;99.90;;;;;;5074592;28;20481;-77
2022/06/25 04:41:36;;;;;;;2.80;0.93;;;14.90;99.90;;;;;;5075273;28;20043;-77
2022/06/25 04:44:01;;;;;;;1.10;0.80;;;14.90;99.90;;;;;;5070562;28;20074;-77
2022/06/25 04:46:29;;;;;;;4.13;1.30;;;14.90;99.90;;;;;;5037236;28;20170;-77
2022/06/25 04:48:56;;;;;;;4.18;1.30;;;14.90;99.90;;;;;;5038167;28;20035;-78
2022/06/25 04:51:21;;;;;;;4.18;1.30;;;14.90;99.90;;;;;;5075330;28;20424;-78
2022/06/25 04:53:56;;;;;;;2.75;1.10;;;14.90;99.90;;;;;;5070721;28;20025;-70
2022/06/25 04:56:26;;;;;;;4.45;1.10;;;15.00;99.90;;;;;;5051832;28;20462;-69
2022/06/25 04:58:53;;;;;;;4.00;1.15;;;15.00;99.90;;;;;;5046818;28;20494;-68
2022/06/25 05:01:19;;;;;;;2.75;1.15;;;15.10;99.90;;;;;;5057206;28;20021;-68
2022/06/25 05:03:44;;;;;;;3.90;1.02;;;15.10;99.90;;;;;;5051016;28;20036;-69
2022/06/25 05:06:10;;;;;;;7.45;1.38;;;15.20;99.90;;;;;;5062795;28;20034;-68
2022/06/25 05:08:36;;;;;;;3.63;1.00;;;15.30;99.90;;;;;;5036614;28;20037;-68
2022/06/25 05:11:02;;;;;;;2.88;0.90;;;15.40;99.90;;;;;;5044349;28;20042;-69
2022/06/25 05:13:28;;;;;;;6.72;0.90;;;15.50;99.90;;;;;;5050906;28;20458;-69
2022/06/25 05:15:54;;;;;;;1.92;1.00;;;15.50;99.90;;;;;;5051308;28;20455;-69
2022/06/25 05:18:19;;;;;;;2.17;0.90;;;15.60;99.90;;;;;;5055580;28;20029;-68
2022/06/25 05:20:45;;;;;;;2.92;0.98;;;15.70;99.90;;;;;;5061472;28;20106;-70
2022/06/25 05:23:12;;;;;;;2.67;0.90;;;15.80;99.90;;;;;;5057794;28;20028;-69
2022/06/25 05:25:38;;;;;;;4.75;0.98;;;15.90;99.90;;;;;;5040930;28;20035;-71
2022/06/25 05:28:04;;;;;;;3.50;0.88;;;15.90;99.90;;;;;;5058800;28;20028;-70
2022/06/25 05:30:30;;;;;;;3.80;1.00;;;16.00;99.90;;;;;;5055291;28;20030;-70
2022/06/25 05:32:56;;;;;;;4.57;1.00;;;16.10;99.90;;;;;;5051778;28;20124;-71
2022/06/25 05:35:22;;;;;;;2.72;0.90;;;16.00;99.90;;;;;;5053501;28;20110;-70
2022/06/25 05:37:48;;;;;;;2.35;0.80;;;16.00;99.90;;;;;;5052083;28;20522;-70
2022/06/25 05:40:14;;;;;;;6.53;0.90;;;16.10;99.90;;;;;;5051402;28;20032;-69
2022/06/25 05:42:40;;;;;;;4.35;1.02;;;16.10;99.90;;;;;;5057336;28;20025;-69
2022/06/25 05:45:06;;;;;;;2.03;0.85;;;16.10;99.90;;;;;;5064998;28;20060;-70
2022/06/25 05:47:32;;;;;;;3.15;1.00;;;16.10;99.90;;;;;;5057670;28;20095;-70
2022/06/25 05:49:58;;;;;;;1.55;0.90;;;16.20;99.90;;;;;;5050263;28;20421;-70
2022/06/25 05:52:23;;;;;;;1.92;0.98;;;16.20;99.90;;;;;;5059421;28;20443;-71
2022/06/25 05:54:49;;;;;;;2.33;0.70;;;16.30;99.90;;;;;;5063549;28;20025;-70
2022/06/25 05:57:14;;;;;;;3.45;1.00;;;16.30;99.90;;;;;;5062961;28;20021;-73
2022/06/25 05:59:40;;;;;;;2.63;0.90;;;16.40;99.90;;;;;;5051383;28;20049;-71
2022/06/25 06:02:06;;;;;;;4.53;0.80;;;16.40;99.90;;;;;;5052114;28;20477;-70
2022/06/25 06:04:32;;;;;;;2.65;0.77;;;16.50;99.90;;;;;;5048923;28;20039;-70
2022/06/25 06:06:59;;;;;;;1.15;0.70;;;16.60;99.90;;;;;;5059801;28;20028;-70
2022/06/25 06:09:27;;;;;;;2.58;1.77;;;16.70;99.90;;;;;;5057590;28;20090;-70
2022/06/25 06:11:53;;;;;;;6.47;1.90;;;16.70;99.90;;;;;;5059737;28;20029;-70
2022/06/25 06:14:19;;;;;;;2.80;1.70;;;16.70;99.90;;;;;;5046057;28;20036;-71
2022/06/25 06:16:44;;;;;;;4.10;1.10;;;16.80;99.90;;;;;;5046125;28;20025;-71
2022/06/25 06:19:10;;;;;;;2.35;0.85;;;16.80;99.90;;;;;;5051705;28;20028;-71
2022/06/25 06:21:35;;;;;;;5.22;0.80;;;16.90;99.90;;;;;;5052227;28;20048;-71
2022/06/25 06:24:01;;;;;;;3.45;0.70;;;16.90;99.90;;;;;;5049373;28;20025;-70
2022/06/25 06:26:26;;;;;;;1.42;0.70;;;17.00;99.90;;;;;;5049563;28;20557;-71
2022/06/25 06:28:52;;;;;;;2.72;0.90;;;17.10;99.90;;;;;;5040806;28;20082;-70
2022/06/25 06:31:17;;;;;;;2.35;0.77;;;17.10;99.90;;;;;;5049450;28;20037;-70
2022/06/25 06:33:43;;;;;;;8.27;0.80;;;17.20;99.90;;;;;;5049384;28;20064;-70
2022/06/25 06:36:08;;;;;;;2.25;0.90;;;17.30;99.90;;;;;;5049641;28;20053;-71
2022/06/25 06:38:34;;;;;;;2.20;0.77;;;17.30;99.90;;;;;;5046792;28;20028;-70
2022/06/25 06:41:00;;;;;;;1.45;0.70;;;17.30;99.90;;;;;;5048967;28;20029;-71
2022/06/25 06:43:26;;;;;;;2.58;0.70;;;17.40;99.90;;;;;;5049818;28;20045;-71
2022/06/25 06:45:52;;;;;;;3.67;1.48;;;17.50;99.90;;;;;;5049495;28;20116;-72
2022/06/25 06:48:17;;;;;;;1.98;1.00;;;17.70;99.90;;;;;;5030150;28;20194;-76
2022/06/25 06:50:43;;;;;;;4.43;0.80;;;17.80;99.90;;;;;;5048146;28;20086;-71
2022/06/25 06:53:08;;;;;;;2.22;0.80;;;17.90;99.90;;;;;;5031216;28;20033;-71
2022/06/25 06:55:34;;;;;;;3.28;1.00;;;18.10;99.90;;;;;;5050701;28;20033;-71
2022/06/25 06:58:00;;;;;;;1.80;1.13;;;18.20;99.90;;;;;;5067190;28;20032;-72
2022/06/25 07:00:25;;;;;;;3.65;0.80;;;18.30;99.90;;;;;;5063362;28;20029;-71
2022/06/25 07:02:51;;;;;;;6.03;1.00;;;18.40;99.90;;;;;;5070299;28;20045;-72
2022/06/25 07:05:16;;;;;;;1.23;0.80;;;18.40;99.90;;;;;;5047469;28;20027;-71
2022/06/25 07:07:42;;;;;;;5.95;0.80;;;18.50;99.90;;;;;;5070536;28;20386;-72
2022/06/25 07:10:08;;;;;;;2.00;0.85;;;18.50;99.90;;;;;;5070516;28;20078;-72
2022/06/25 07:12:34;;;;;;;2.42;0.80;;;18.40;99.90;;;;;;5073035;28;20056;-71
2022/06/25 07:14:59;;;;;;;3.63;0.80;;;18.30;99.90;;;;;;5065479;28;20052;-72
2022/06/25 07:17:25;;;;;;;1.67;0.90;;;18.20;99.90;;;;;;5062700;28;20083;-72
2022/06/25 07:19:52;;;;;;;2.03;1.00;;;18.20;99.90;;;;;;5067842;28;20354;-72
2022/06/25 07:22:17;;;;;;;3.75;1.20;;;18.20;99.90;;;;;;5073075;28;20097;-71
2022/06/25 07:24:43;;;;;;;4.72;1.10;;;18.30;99.90;;;;;;5074078;28;20470;-71
2022/06/25 07:27:08;;;;;;;3.33;0.95;;;18.40;99.90;;;;;;5074270;28;20021;-71
2022/06/25 07:29:34;;;;;;;1.73;0.98;;;18.40;99.90;;;;;;5056338;28;20009;-72
2022/06/25 07:31:59;;;;;;;2.53;0.98;;;18.40;99.90;;;;;;5035909;28;20111;-71
2022/06/25 07:34:25;;;;;;;3.13;1.00;;;18.50;99.90;;;;;;5036865;28;20029;-71
2022/06/25 07:36:50;;;;;;;5.13;1.60;;;18.60;99.90;;;;;;5050090;28;20018;-70
2022/06/25 07:39:16;;;;;;;1.33;1.08;;;18.60;99.90;;;;;;5049410;28;20051;-71
2022/06/25 07:41:42;;;;;;;2.70;1.10;;;18.80;99.90;;;;;;5035929;28;20347;-71
2022/06/25 07:44:07;;;;;;;3.65;0.98;;;18.80;99.90;;;;;;5048648;28;20028;-71
2022/06/25 07:46:33;;;;;;;3.83;1.10;;;18.90;99.90;;;;;;5053698;28;20071;-71
2022/06/25 07:48:58;;;;;;;3.17;1.10;;;18.90;99.90;;;;;;5052763;28;20055;-71
2022/06/25 07:54:08;;;;;;;2.67;1.30;;;19.10;99.90;;;;;;5047600;28;20380;-71
2022/06/25 07:56:34;;;;;;;2.20;1.20;;;19.30;99.90;;;;;;5051466;28;20021;-77
2022/06/25 07:59:00;;;;;;;2.33;1.02;;;19.30;99.90;;;;;;5054213;28;20021;-70
2022/06/25 08:01:25;;;;;;;1.80;0.95;;;19.40;99.90;;;;;;5056529;28;20086;-71
2022/06/25 08:03:51;;;;;;;2.83;1.10;;;19.40;99.90;;;;;;5055777;28;20033;-71
2022/06/25 08:06:16;;;;;;;2.83;1.20;;;19.50;99.90;;;;;;5053176;28;20056;-71
2022/06/25 08:08:42;;;;;;;3.67;1.05;;;19.60;99.90;;;;;;5052356;28;20021;-71
2022/06/25 08:11:08;;;;;;;3.60;0.90;;;19.70;99.90;;;;;;5045476;28;20405;-72
2022/06/25 08:13:34;;;;;;;2.83;1.02;;;19.90;99.90;;;;;;5071551;28;20036;-72
2022/06/25 08:15:59;;;;;;;1.27;1.05;;;20.00;99.90;;;;;;5061889;28;20024;-67
2022/06/25 08:18:25;;;;;;;1.33;0.98;;;20.20;99.90;;;;;;5054157;28;20024;-68
2022/06/25 08:20:51;;;;;;;1.48;0.90;;;20.20;99.90;;;;;;5048803;28;20380;-68
2022/06/25 08:23:16;;;;;;;2.55;1.02;;;20.10;99.90;;;;;;5065838;28;20029;-67
2022/06/25 08:25:42;;;;;;;12.93;1.58;;;20.10;99.90;;;;;;5057340;28;20102;-67
2022/06/25 08:28:08;;;;;;;67.30;6.05;;;20.00;99.90;;;;;;5055480;28;20044;-66
2022/06/25 08:30:35;;;;;;;11.23;1.35;;;20.00;99.90;;;;;;5058420;28;20029;-67
2022/06/25 08:33:01;;;;;;;23.75;2.05;;;20.00;99.90;;;;;;5059993;28;20150;-66
2022/06/25 08:35:26;;;;;;;2.13;0.90;;;20.10;99.90;;;;;;5053492;28;20017;-67
2022/06/25 08:37:53;;;;;;;1.63;1.02;;;20.10;99.90;;;;;;5058085;28;20079;-67
2022/06/25 08:40:20;;;;;;;2.13;1.05;;;20.10;99.90;;;;;;5046867;28;20025;-68
2022/06/25 08:42:47;;;;;;;2.75;0.90;;;20.20;99.90;;;;;;5053007;28;20029;-67
2022/06/25 08:45:15;;;;;;;1.55;0.98;;;20.30;99.90;;;;;;5046849;28;20027;-68
2022/06/25 08:47:47;;;;;;;4.18;1.00;;;20.40;99.90;;;;;;5053329;28;20048;-67
2022/06/25 08:50:17;;;;;;;3.00;1.10;;;20.50;99.90;;;;;;5046313;28;20029;-67
2022/06/25 08:52:47;;;;;;;2.40;0.90;;;20.40;99.90;;;;;;5058795;28;20082;-67
2022/06/25 08:55:22;;;;;;;2.08;0.85;;;20.40;99.90;;;;;;5054293;28;20023;-67
2022/06/25 08:57:47;;;;;;;5.60;1.20;;;20.40;99.90;;;;;;5068178;28;20020;-67
2022/06/25 09:00:13;;;;;;;1.27;1.00;;;20.40;99.90;;;;;;5067311;28;20071;-70
2022/06/25 09:02:39;;;;;;;3.00;1.23;;;20.40;99.90;;;;;;5052263;28;20021;-67
2022/06/25 09:05:08;;;;;;;4.00;0.98;;;20.50;99.90;;;;;;5053232;28;20063;-67
2022/06/25 09:07:34;;;;;;;2.80;1.02;;;20.50;99.90;;;;;;5054715;28;20396;-67
2022/06/25 09:09:59;;;;;;;0.80;0.75;;;20.70;99.90;;;;;;5054383;28;20032;-67
2022/06/25 09:12:25;;;;;;;2.63;0.88;;;20.80;99.90;;;;;;5063525;28;20111;-67
2022/06/25 09:14:50;;;;;;;2.55;1.00;;;20.90;99.90;;;;;;5072805;28;20021;-67
2022/06/25 09:17:16;;;;;;;2.17;1.05;;;21.00;99.90;;;;;;5054884;28;20013;-72
2022/06/25 09:19:44;;;;;;;119.30;31.10;;;21.20;99.90;;;;;;5064145;28;20025;-71
2022/06/25 09:22:20;;;;;;;7.72;2.85;;;21.40;99.90;;;;;;5062075;28;20024;-69
2022/06/25 09:24:59;;;;;;;2.67;1.30;;;21.60;99.90;;;;;;5057425;28;20100;-67
2022/06/25 09:27:33;;;;;;;22.75;6.72;;;21.60;99.90;;;;;;5053611;28;20029;-67
2022/06/25 09:30:09;;;;;;;18.90;5.15;;;21.40;99.90;;;;;;5053809;28;20062;-68
2022/06/25 09:32:48;;;;;;;2.33;1.15;;;21.30;99.90;;;;;;5039188;28;20490;-67
2022/06/25 09:35:27;;;;;;;2.80;0.90;;;21.30;99.90;;;;;;5015975;28;20390;-67
2022/06/25 09:37:52;;;;;;;2.85;1.00;;;21.50;99.90;;;;;;5024980;28;20021;-67
2022/06/25 09:40:18;;;;;;;2.22;0.90;;;21.80;99.90;;;;;;5054063;28;20024;-67
2022/06/25 09:42:46;;;;;;;1.02;0.90;;;22.10;99.90;;;;;;5053882;28;20528;-67
2022/06/25 09:45:13;;;;;;;1.98;0.95;;;22.50;99.90;;;;;;5048954;28;20021;-67
2022/06/25 09:47:42;;;;;;;4.82;0.95;;;22.70;99.90;;;;;;5057796;28;20032;-68
2022/06/25 09:50:14;;;;;;;3.00;1.00;;;23.00;99.90;;;;;;5055715;28;20025;-68
2022/06/25 09:52:59;;;;;;;1.25;0.70;;;23.20;99.90;;;;;;5053316;28;20025;-67
2022/06/25 09:55:26;;;;;;;2.47;1.17;;;23.60;99.90;;;;;;5057368;28;20025;-66
2022/06/25 09:57:52;;;;;;;3.17;1.00;;;23.80;99.90;;;;;;5058538;28;20099;-66
2022/06/25 10:00:20;;;;;;;2.38;0.90;;;24.20;99.90;;;;;;5072917;28;20430;-72
2022/06/25 10:02:48;;;;;;;3.25;1.17;;;24.60;99.90;;;;;;5039893;28;20059;-67
2022/06/25 10:05:17;;;;;;;3.67;1.10;;;24.70;99.90;;;;;;5046733;28;20026;-68
2022/06/25 10:07:59;;;;;;;3.97;1.27;;;24.80;99.90;;;;;;5055909;28;20029;-67
2022/06/25 10:10:26;;;;;;;3.92;0.90;;;25.10;99.90;;;;;;5062387;28;20101;-66
2022/06/25 10:12:52;;;;;;;10.15;2.78;;;25.30;99.90;;;;;;5041681;28;20082;-67
2022/06/25 10:15:20;;;;;;;2.55;1.02;;;25.40;99.90;;;;;;5060594;28;20024;-68
2022/06/25 10:17:47;;;;;;;1.77;0.88;;;25.60;99.90;;;;;;5047197;28;20021;-67
2022/06/25 10:20:14;;;;;;;3.58;1.17;;;25.60;99.90;;;;;;5060040;28;20051;-68
2022/06/25 10:22:40;;;;;;;4.47;0.90;;;25.80;99.90;;;;;;5046417;28;20021;-68
2022/06/25 10:25:10;;;;;;;3.60;0.80;;;25.90;99.90;;;;;;5048686;28;20170;-68
2022/06/25 10:27:46;;;;;;;0.90;0.73;;;25.80;99.90;;;;;;5053636;28;20381;-67
2022/06/25 10:30:14;;;;;;;22.60;4.88;;;25.90;99.90;;;;;;5049796;28;20100;-67
2022/06/25 10:32:47;;;;;;;6.13;2.67;;;26.10;99.90;;;;;;5041045;28;20486;-66
2022/06/25 10:35:42;;;;;;;1.63;1.08;;;26.10;99.90;;;;;;5058612;28;20039;-67
2022/06/25 10:38:18;;;;;;;;;;;25.80;99.90;;;;;;5024049;28;20041;-67
2022/06/25 10:40:56;;;;;;;12.43;4.18;;;25.70;99.90;;;;;;5052934;28;19905;-67
2022/06/25 10:43:53;;;;;;;14.07;3.55;;;25.40;99.90;;;;;;5052801;28;20066;-67
2022/06/25 10:46:18;;;;;;;4.90;1.40;;;25.40;99.90;;;;;;5053657;28;20086;-68
2022/06/25 10:49:11;;;;;;;5.07;2.50;;;25.60;99.90;;;;;;5054407;28;20465;-67
2022/06/25 10:51:50;;;;;;;5.03;1.48;;;25.60;99.90;;;;;;5040445;28;20120;-68
2022/06/25 10:54:24;;;;;;;2.90;1.13;;;25.70;99.90;;;;;;5042648;28;20083;-67
2022/06/25 10:56:55;;;;;;;4.13;1.70;;;25.40;99.90;;;;;;5043912;28;20024;-66
2022/06/25 10:59:41;;;;;;;1.02;0.80;;;25.40;99.90;;;;;;5063897;28;20025;-69
2022/06/25 11:02:09;;;;;;;1.50;0.85;;;25.50;99.90;;;;;;5054351;28;20053;-68
2022/06/25 11:04:36;;;;;;;1.27;0.85;;;25.40;99.90;;;;;;5047440;28;20029;-78
2022/06/25 11:07:12;;;;;;;1.77;1.00;;;25.10;99.90;;;;;;5060686;28;20040;-66
2022/06/25 11:09:39;;;;;;;1.65;0.90;;;24.80;99.90;;;;;;5068511;28;20025;-66
2022/06/25 11:12:06;;;;;;;5.10;0.85;;;24.70;99.90;;;;;;5056060;28;20120;-66
2022/06/25 11:14:32;;;;;;;1.20;0.70;;;24.90;99.90;;;;;;5042128;28;20108;-66
2022/06/25 11:17:09;;;;;;;1.08;0.60;;;25.30;99.90;;;;;;5047281;28;20105;-66
2022/06/25 11:19:36;;;;;;;1.73;0.80;;;25.40;99.90;;;;;;5056192;28;20029;-66
2022/06/25 11:22:03;;;;;;;3.13;0.70;;;25.40;99.90;;;;;;5057106;28;20013;-66
2022/06/25 11:24:29;;;;;;;1.95;0.90;;;25.20;99.90;;;;;;5056591;28;20029;-67
2022/06/25 11:29:47;;;;;;;0.73;0.60;;;25.60;99.90;;;;;;5056601;28;20116;-67
2022/06/25 11:32:14;;;;;;;1.05;0.70;;;25.40;99.90;;;;;;5055688;28;20029;-66
2022/06/25 11:34:41;;;;;;;0.73;0.70;;;25.20;99.90;;;;;;5041797;28;20025;-66
2022/06/25 11:37:08;;;;;;;1.40;0.82;;;25.20;99.90;;;;;;5056174;28;20025;-67
2022/06/25 11:39:35;;;;;;;1.33;1.08;;;25.60;99.90;;;;;;5055945;28;20385;-67
2022/06/25 11:42:05;;;;;;;1.52;0.82;;;25.90;99.90;;;;;;5037942;28;20024;-66
2022/06/25 11:44:46;;;;;;;1.83;0.85;;;26.20;99.90;;;;;;5041822;28;20095;-66
2022/06/25 11:47:13;;;;;;;2.97;0.80;;;26.60;99.90;;;;;;5057893;28;20017;-68
2022/06/25 11:49:41;;;;;;;1.15;0.70;;;26.90;99.90;;;;;;5045506;28;20048;-67
2022/06/25 11:52:08;;;;;;;2.22;0.80;;;27.00;99.90;;;;;;5052263;28;20056;-67
2022/06/25 11:54:38;;;;;;;1.15;0.70;;;27.10;99.90;;;;;;5055160;28;20029;-67
2022/06/25 11:57:05;;;;;;;3.92;0.65;;;27.30;99.90;;;;;;5055033;28;20110;-68
2022/06/25 11:59:34;;;;;;;1.45;0.70;;;27.50;99.90;;;;;;5063265;28;20370;-69
2022/06/25 12:02:03;;;;;;;4.93;1.25;;;27.80;99.90;;;;;;5065503;28;20021;-69
2022/06/25 12:04:30;;;;;;;1.58;0.90;;;28.10;99.90;;;;;;5063703;28;20509;-68
2022/06/25 12:06:56;;;;;;;4.30;1.70;;;28.40;99.90;;;;;;5051536;28;20025;-69
2022/06/25 12:09:22;;;;;;;1.30;0.90;;;28.80;99.90;;;;;;5065206;28;20040;-69
2022/06/25 12:11:51;;;;;;;2.65;1.17;;;29.10;99.90;;;;;;5053703;28;20876;-68
2022/06/25 12:14:22;;;;;;;0.88;0.77;;;28.90;99.90;;;;;;5055167;28;20119;-68
2022/06/25 12:16:49;;;;;;;2.70;0.80;;;28.40;99.90;;;;;;5048022;28;20043;-69
2022/06/25 12:19:16;;;;;;;0.75;0.50;;;28.40;99.90;;;;;;5051961;28;20797;-70
2022/06/25 12:21:42;;;;;;;3.25;0.95;;;28.20;99.90;;;;;;5051813;28;20051;-71
2022/06/25 12:24:12;;;;;;;1.67;0.68;;;28.40;99.90;;;;;;5051922;28;20032;-70
2022/06/25 12:26:41;;;;;;;1.50;0.90;;;28.50;99.90;;;;;;5052149;28;20351;-70
2022/06/25 12:29:13;;;;;;;1.17;0.60;;;28.50;99.90;;;;;;5051949;28;20029;-70
2022/06/25 12:31:41;;;;;;;1.75;0.73;;;28.70;99.90;;;;;;5052275;28;20090;-70
2022/06/25 12:34:07;;;;;;;1.25;0.73;;;28.90;99.00;;;;;;5051385;28;20021;-70
2022/06/25 12:36:38;;;;;;;0.63;0.47;;;29.20;98.70;;;;;;5052173;28;20055;-70
2022/06/25 12:39:36;;;;;;;2.13;0.75;;;29.00;97.50;;;;;;5046992;28;20418;-70
2022/06/25 12:42:10;;;;;;;2.38;0.60;;;28.80;97.90;;;;;;5052241;28;20009;-70
2022/06/25 12:44:41;;;;;;;1.63;0.50;;;28.80;98.10;;;;;;5051751;28;20040;-70
2022/06/25 12:47:09;;;;;;;2.75;0.70;;;29.00;96.40;;;;;;5052181;28;20032;-70
2022/06/25 12:49:52;;;;;;;4.53;0.80;;;28.60;96.10;;;;;;5052127;28;20033;-70
2022/06/25 12:52:39;;;;;;;1.35;0.80;;;28.60;97.30;;;;;;5046540;28;20070;-70
2022/06/25 12:55:06;;;;;;;3.22;0.90;;;28.60;97.80;;;;;;5057821;28;20036;-70
2022/06/25 12:57:35;;;;;;;1.38;0.70;;;28.50;97.60;;;;;;5059535;28;20467;-70